sensor_id;sensor_type;location;lat;lon;timestamp;pressure;altitude;pressure_sealevel;temperature;humidity
70072;BME280;57434;42.794;23.302;2022-10-16T00:01:06;96203.47;;;5.81;71.59
70072;BME280;57434;42.794;23.302;2022-10-16T00:03:33;96192.69;;;5.83;71.91
70072;BME280;57434;42.794;23.302;2022-10-16T00:06:01;96225.84;;;6.02;71.38
70072;BME280;57434;42.794;23.302;2022-10-16T00:08:28;96346.38;;;6.75;71.24
70072;BME280;57434;42.794;23.302;2022-10-16T00:11:07;96168.63;;;5.63;71.73
70072;BME280;57434;42.794;23.302;2022-10-16T00:13:36;96175.09;;;5.60;71.73
70072;BME280;57434;42.794;23.302;2022-10-16T00:16:04;96106.25;;;5.14;71.45
70072;BME280;57434;42.794;23.302;2022-10-16T00:18:31;96356.22;;;6.67;71.58
70072;BME280;57434;42.794;23.302;2022-10-16T00:21:07;96316.13;;;6.52;71.65
70072;BME280;57434;42.794;23.302;2022-10-16T00:23:35;96207.16;;;5.65;71.35
70072;BME280;57434;42.794;23.302;2022-10-16T00:26:05;96345.84;;;6.68;71.70
70072;BME280;57434;42.794;23.302;2022-10-16T00:28:33;96240.78;;;5.83;71.30
70072;BME280;57434;42.794;23.302;2022-10-16T00:31:11;96298.34;;;5.86;71.46
70072;BME280;57434;42.794;23.302;2022-10-16T00:33:40;96360.88;;;6.36;71.95
70072;BME280;57434;42.794;23.302;2022-10-16T00:36:10;96244.22;;;5.36;72.17
70072;BME280;57434;42.794;23.302;2022-10-16T00:38:38;96350.81;;;5.88;72.40
70072;BME280;57434;42.794;23.302;2022-10-16T00:41:06;96214.22;;;4.90;72.67
70072;BME280;57434;42.794;23.302;2022-10-16T00:43:48;96352.06;;;5.99;72.01
70072;BME280;57434;42.794;23.302;2022-10-16T00:46:22;96076.22;;;4.29;71.66
70072;BME280;57434;42.794;23.302;2022-10-16T00:51:44;96356.28;;;5.78;71.94
70072;BME280;57434;42.794;23.302;2022-10-16T00:54:15;96218.72;;;5.00;71.82
70072;BME280;57434;42.794;23.302;2022-10-16T00:56:43;96166.28;;;4.44;71.88
70072;BME280;57434;42.794;23.302;2022-10-16T00:59:30;96184.69;;;4.67;71.93
70072;BME280;57434;42.794;23.302;2022-10-16T01:01:59;96369.75;;;5.67;71.93
70072;BME280;57434;42.794;23.302;2022-10-16T01:04:32;96154.91;;;4.09;72.21
70072;BME280;57434;42.794;23.302;2022-10-16T01:15:27;96293.56;;;5.07;73.26
70072;BME280;57434;42.794;23.302;2022-10-16T01:18:03;96207.78;;;4.64;72.87
70072;BME280;57434;42.794;23.302;2022-10-16T01:20:36;96325.19;;;5.13;73.03
70072;BME280;57434;42.794;23.302;2022-10-16T01:28:32;96224.75;;;4.53;73.01
70072;BME280;57434;42.794;23.302;2022-10-16T01:31:01;96359.50;;;5.64;72.40
70072;BME280;57434;42.794;23.302;2022-10-16T01:33:39;96266.34;;;5.15;71.97
70072;BME280;57434;42.794;23.302;2022-10-16T01:36:23;96355.63;;;5.87;71.36
70072;BME280;57434;42.794;23.302;2022-10-16T01:38:54;96195.22;;;4.30;72.20
70072;BME280;57434;42.794;23.302;2022-10-16T01:41:31;96320.38;;;5.01;72.46
70072;BME280;57434;42.794;23.302;2022-10-16T01:44:10;96394.72;;;5.42;72.73
70072;BME280;57434;42.794;23.302;2022-10-16T01:46:40;96365.44;;;5.37;72.81
70072;BME280;57434;42.794;23.302;2022-10-16T01:49:10;96251.91;;;4.33;72.61
70072;BME280;57434;42.794;23.302;2022-10-16T01:51:38;96261.81;;;4.18;72.81
70072;BME280;57434;42.794;23.302;2022-10-16T01:54:08;96370.09;;;4.99;73.22
70072;BME280;57434;42.794;23.302;2022-10-16T01:56:36;96195.41;;;3.62;73.65
70072;BME280;57434;42.794;23.302;2022-10-16T01:59:09;96414.44;;;5.19;74.25
70072;BME280;57434;42.794;23.302;2022-10-16T02:01:40;96181.69;;;3.87;74.04
70072;BME280;57434;42.794;23.302;2022-10-16T02:04:15;96223.59;;;4.22;74.07
70072;BME280;57434;42.794;23.302;2022-10-16T02:06:43;96109.03;;;3.43;74.62
70072;BME280;57434;42.794;23.302;2022-10-16T02:09:10;96213.84;;;4.01;74.61
70072;BME280;57434;42.794;23.302;2022-10-16T02:11:37;96264.31;;;4.44;74.29
70072;BME280;57434;42.794;23.302;2022-10-16T02:14:06;96274.63;;;4.28;74.16
70072;BME280;57434;42.794;23.302;2022-10-16T02:16:41;96220.59;;;4.00;74.30
70072;BME280;57434;42.794;23.302;2022-10-16T02:19:09;96376.00;;;5.01;73.74
70072;BME280;57434;42.794;23.302;2022-10-16T02:21:57;96387.78;;;5.05;74.21
70072;BME280;57434;42.794;23.302;2022-10-16T02:24:40;96235.78;;;3.95;74.55
70072;BME280;57434;42.794;23.302;2022-10-16T02:27:13;96225.81;;;3.98;74.31
70072;BME280;57434;42.794;23.302;2022-10-16T02:29:49;96395.75;;;5.19;74.20
70072;BME280;57434;42.794;23.302;2022-10-16T02:32:23;96329.50;;;4.85;74.33
70072;BME280;57434;42.794;23.302;2022-10-16T02:34:51;96268.53;;;4.49;74.49
70072;BME280;57434;42.794;23.302;2022-10-16T02:37:18;96241.31;;;4.28;74.79
70072;BME280;57434;42.794;23.302;2022-10-16T02:39:45;96254.19;;;4.05;74.84
70072;BME280;57434;42.794;23.302;2022-10-16T02:42:14;96263.38;;;4.19;74.50
70072;BME280;57434;42.794;23.302;2022-10-16T02:44:41;96426.88;;;5.14;73.98
70072;BME280;57434;42.794;23.302;2022-10-16T02:47:08;96387.50;;;4.70;73.79
70072;BME280;57434;42.794;23.302;2022-10-16T02:49:35;96219.31;;;3.72;73.28
70072;BME280;57434;42.794;23.302;2022-10-16T02:52:02;96404.00;;;4.61;73.66
70072;BME280;57434;42.794;23.302;2022-10-16T02:54:28;96259.81;;;3.53;73.52
70072;BME280;57434;42.794;23.302;2022-10-16T02:56:55;96356.75;;;4.29;73.16
70072;BME280;57434;42.794;23.302;2022-10-16T02:59:22;96275.47;;;3.43;72.69
70072;BME280;57434;42.794;23.302;2022-10-16T03:01:49;96231.78;;;3.31;72.60
70072;BME280;57434;42.794;23.302;2022-10-16T03:04:16;96272.75;;;3.24;73.53
70072;BME280;57434;42.794;23.302;2022-10-16T03:06:43;96452.91;;;4.23;73.76
70072;BME280;57434;42.794;23.302;2022-10-16T03:09:09;96428.47;;;4.34;73.50
70072;BME280;57434;42.794;23.302;2022-10-16T03:11:36;96167.41;;;2.88;73.21
70072;BME280;57434;42.794;23.302;2022-10-16T03:14:03;96272.28;;;3.45;73.01
70072;BME280;57434;42.794;23.302;2022-10-16T03:16:30;96430.91;;;4.48;72.45
70072;BME280;57434;42.794;23.302;2022-10-16T03:18:57;96321.88;;;4.12;73.07
70072;BME280;57434;42.794;23.302;2022-10-16T03:21:24;96366.69;;;3.94;74.10
70072;BME280;57434;42.794;23.302;2022-10-16T03:23:50;96248.84;;;3.30;73.95
70072;BME280;57434;42.794;23.302;2022-10-16T03:26:18;96301.78;;;3.55;73.73
70072;BME280;57434;42.794;23.302;2022-10-16T03:28:44;96168.56;;;2.31;73.47
70072;BME280;57434;42.794;23.302;2022-10-16T03:31:11;96286.81;;;3.13;74.28
70072;BME280;57434;42.794;23.302;2022-10-16T03:33:38;96313.00;;;3.12;74.40
70072;BME280;57434;42.794;23.302;2022-10-16T03:36:05;96139.63;;;2.35;73.78
70072;BME280;57434;42.794;23.302;2022-10-16T03:38:32;96109.59;;;2.14;73.67
70072;BME280;57434;42.794;23.302;2022-10-16T03:40:59;96302.47;;;2.84;75.44
70072;BME280;57434;42.794;23.302;2022-10-16T03:43:26;96249.59;;;2.94;75.30
70072;BME280;57434;42.794;23.302;2022-10-16T03:45:53;96301.56;;;3.10;75.85
70072;BME280;57434;42.794;23.302;2022-10-16T03:48:20;96435.22;;;4.17;76.25
70072;BME280;57434;42.794;23.302;2022-10-16T03:50:47;96311.88;;;3.46;76.08
70072;BME280;57434;42.794;23.302;2022-10-16T03:53:14;96287.78;;;3.06;76.00
70072;BME280;57434;42.794;23.302;2022-10-16T03:55:42;96460.38;;;4.09;75.90
70072;BME280;57434;42.794;23.302;2022-10-16T03:58:10;96333.38;;;3.41;76.41
70072;BME280;57434;42.794;23.302;2022-10-16T04:00:44;96235.91;;;2.67;76.11
70072;BME280;57434;42.794;23.302;2022-10-16T04:03:11;96427.78;;;3.94;76.13
70072;BME280;57434;42.794;23.302;2022-10-16T04:05:39;96427.84;;;4.10;75.37
70072;BME280;57434;42.794;23.302;2022-10-16T04:08:06;96431.50;;;3.87;75.09
70072;BME280;57434;42.794;23.302;2022-10-16T04:10:33;96393.09;;;3.66;73.70
70072;BME280;57434;42.794;23.302;2022-10-16T04:13:00;96317.41;;;2.90;73.75
70072;BME280;57434;42.794;23.302;2022-10-16T04:15:27;96176.31;;;2.20;73.21
70072;BME280;57434;42.794;23.302;2022-10-16T04:17:54;96401.78;;;3.68;73.61
70072;BME280;57434;42.794;23.302;2022-10-16T04:20:21;96227.38;;;2.58;73.77
70072;BME280;57434;42.794;23.302;2022-10-16T04:22:48;96431.78;;;3.73;74.69
70072;BME280;57434;42.794;23.302;2022-10-16T04:25:15;96398.72;;;3.42;73.84
70072;BME280;57434;42.794;23.302;2022-10-16T04:27:42;96469.81;;;3.36;74.87
70072;BME280;57434;42.794;23.302;2022-10-16T04:30:11;96455.56;;;3.34;74.91
70072;BME280;57434;42.794;23.302;2022-10-16T04:32:39;96339.97;;;2.68;74.68
70072;BME280;57434;42.794;23.302;2022-10-16T04:35:06;96493.16;;;3.59;75.29
70072;BME280;57434;42.794;23.302;2022-10-16T04:37:33;96334.88;;;2.67;74.72
70072;BME280;57434;42.794;23.302;2022-10-16T04:40:00;96304.66;;;2.29;74.35
70072;BME280;57434;42.794;23.302;2022-10-16T04:42:27;96339.13;;;2.71;74.80
70072;BME280;57434;42.794;23.302;2022-10-16T04:44:53;96304.94;;;2.58;75.17
70072;BME280;57434;42.794;23.302;2022-10-16T04:47:20;96169.88;;;1.83;75.00
70072;BME280;57434;42.794;23.302;2022-10-16T04:49:47;96339.78;;;2.79;74.75
70072;BME280;57434;42.794;23.302;2022-10-16T04:52:14;96456.41;;;3.71;75.12
70072;BME280;57434;42.794;23.302;2022-10-16T04:54:41;96465.13;;;3.53;75.50
70072;BME280;57434;42.794;23.302;2022-10-16T04:57:08;96278.84;;;2.36;75.13
70072;BME280;57434;42.794;23.302;2022-10-16T04:59:35;96302.84;;;2.86;75.23
70072;BME280;57434;42.794;23.302;2022-10-16T05:02:03;96355.78;;;3.11;75.24
70072;BME280;57434;42.794;23.302;2022-10-16T05:04:30;96336.47;;;3.07;74.92
70072;BME280;57434;42.794;23.302;2022-10-16T05:06:57;96481.22;;;4.18;74.64
70072;BME280;57434;42.794;23.302;2022-10-16T05:09:24;96349.25;;;3.21;75.24
70072;BME280;57434;42.794;23.302;2022-10-16T05:11:50;96272.22;;;2.53;75.64
70072;BME280;57434;42.794;23.302;2022-10-16T05:14:17;96475.06;;;4.26;75.73
70072;BME280;57434;42.794;23.302;2022-10-16T05:16:44;96438.81;;;4.33;75.29
70072;BME280;57434;42.794;23.302;2022-10-16T05:19:13;96254.75;;;3.12;74.80
70072;BME280;57434;42.794;23.302;2022-10-16T05:21:53;96332.81;;;3.66;75.06
70072;BME280;57434;42.794;23.302;2022-10-16T05:24:20;96348.31;;;4.00;74.78
70072;BME280;57434;42.794;23.302;2022-10-16T05:26:47;96343.66;;;4.13;74.01
70072;BME280;57434;42.794;23.302;2022-10-16T05:29:14;96179.25;;;2.88;73.76
70072;BME280;57434;42.794;23.302;2022-10-16T05:31:41;96414.78;;;4.43;73.86
70072;BME280;57434;42.794;23.302;2022-10-16T05:34:08;96319.94;;;3.76;73.48
70072;BME280;57434;42.794;23.302;2022-10-16T05:36:35;96378.81;;;4.20;73.14
70072;BME280;57434;42.794;23.302;2022-10-16T05:39:02;96350.50;;;4.08;73.12
70072;BME280;57434;42.794;23.302;2022-10-16T05:41:29;96480.78;;;4.88;72.62
70072;BME280;57434;42.794;23.302;2022-10-16T05:43:56;96325.84;;;3.78;72.89
70072;BME280;57434;42.794;23.302;2022-10-16T05:46:23;96357.88;;;4.31;72.98
70072;BME280;57434;42.794;23.302;2022-10-16T05:48:52;96285.91;;;3.72;72.94
70072;BME280;57434;42.794;23.302;2022-10-16T05:51:19;96289.22;;;3.99;73.47
70072;BME280;57434;42.794;23.302;2022-10-16T05:53:46;96314.31;;;4.28;73.56
70072;BME280;57434;42.794;23.302;2022-10-16T05:56:13;96519.09;;;5.74;73.83
70072;BME280;57434;42.794;23.302;2022-10-16T05:58:41;96250.16;;;4.23;73.49
70072;BME280;57434;42.794;23.302;2022-10-16T06:01:17;96348.94;;;5.30;73.25
70072;BME280;57434;42.794;23.302;2022-10-16T06:03:44;96367.97;;;5.73;72.59
70072;BME280;57434;42.794;23.302;2022-10-16T06:06:20;96357.41;;;5.81;72.01
70072;BME280;57434;42.794;23.302;2022-10-16T06:08:48;96520.06;;;7.14;72.50
70072;BME280;57434;42.794;23.302;2022-10-16T06:11:27;96493.81;;;7.37;71.42
70072;BME280;57434;42.794;23.302;2022-10-16T06:13:56;96331.47;;;6.09;71.80
70072;BME280;57434;42.794;23.302;2022-10-16T06:16:24;96376.22;;;6.53;71.70
70072;BME280;57434;42.794;23.302;2022-10-16T06:18:52;96497.44;;;7.81;71.15
70072;BME280;57434;42.794;23.302;2022-10-16T06:21:21;96414.63;;;7.31;70.82
70072;BME280;57434;42.794;23.302;2022-10-16T06:23:49;96542.88;;;8.38;70.24
70072;BME280;57434;42.794;23.302;2022-10-16T06:26:18;96544.38;;;8.52;70.20
70072;BME280;57434;42.794;23.302;2022-10-16T06:28:46;96546.56;;;8.88;69.58
70072;BME280;57434;42.794;23.302;2022-10-16T06:31:14;96558.31;;;8.73;69.69
70072;BME280;57434;42.794;23.302;2022-10-16T06:33:41;96457.28;;;8.40;68.59
70072;BME280;57434;42.794;23.302;2022-10-16T06:36:13;96325.16;;;7.78;67.96
70072;BME280;57434;42.794;23.302;2022-10-16T06:38:40;96437.63;;;8.22;68.54
70072;BME280;57434;42.794;23.302;2022-10-16T06:41:13;96518.75;;;9.42;67.73
70072;BME280;57434;42.794;23.302;2022-10-16T06:43:40;96347.69;;;8.55;66.76
70072;BME280;57434;42.794;23.302;2022-10-16T06:46:10;96553.41;;;10.03;66.97
70072;BME280;57434;42.794;23.302;2022-10-16T06:48:37;96572.72;;;10.10;66.67
70072;BME280;57434;42.794;23.302;2022-10-16T06:51:18;96457.78;;;9.83;65.94
70072;BME280;57434;42.794;23.302;2022-10-16T06:53:49;96558.00;;;10.79;64.27
70072;BME280;57434;42.794;23.302;2022-10-16T06:56:32;96556.66;;;10.38;65.96
70072;BME280;57434;42.794;23.302;2022-10-16T06:59:00;96519.59;;;9.79;67.59
70072;BME280;57434;42.794;23.302;2022-10-16T07:01:27;96577.50;;;10.65;66.26
70072;BME280;57434;42.794;23.302;2022-10-16T07:03:54;96406.72;;;9.79;65.49
70072;BME280;57434;42.794;23.302;2022-10-16T07:06:23;96569.66;;;10.96;63.85
70072;BME280;57434;42.794;23.302;2022-10-16T07:08:51;96348.66;;;8.88;65.03
70072;BME280;57434;42.794;23.302;2022-10-16T07:11:21;96426.50;;;9.84;64.96
70072;BME280;57434;42.794;23.302;2022-10-16T07:13:50;96565.84;;;11.08;63.62
70072;BME280;57434;42.794;23.302;2022-10-16T07:16:27;96557.78;;;11.34;62.70
70072;BME280;57434;42.794;23.302;2022-10-16T07:18:58;96598.25;;;11.61;62.88
70072;BME280;57434;42.794;23.302;2022-10-16T07:21:32;96489.19;;;10.42;63.25
70072;BME280;57434;42.794;23.302;2022-10-16T07:23:59;96446.81;;;11.06;62.28
70072;BME280;57434;42.794;23.302;2022-10-16T07:26:28;96581.28;;;12.27;61.14
70072;BME280;57434;42.794;23.302;2022-10-16T07:28:56;96559.97;;;11.87;60.96
70072;BME280;57434;42.794;23.302;2022-10-16T07:31:24;96336.84;;;10.50;61.01
70072;BME280;57434;42.794;23.302;2022-10-16T07:33:51;96463.28;;;11.70;59.92
70072;BME280;57434;42.794;23.302;2022-10-16T07:36:20;96579.31;;;12.86;59.49
70072;BME280;57434;42.794;23.302;2022-10-16T07:38:47;96462.84;;;12.39;57.96
70072;BME280;57434;42.794;23.302;2022-10-16T07:41:16;96534.88;;;13.25;56.75
70072;BME280;57434;42.794;23.302;2022-10-16T07:43:48;96574.25;;;14.04;55.41
70072;BME280;57434;42.794;23.302;2022-10-16T07:46:16;96569.56;;;14.42;54.79
70072;BME280;57434;42.794;23.302;2022-10-16T07:48:43;96570.03;;;14.61;53.48
70072;BME280;57434;42.794;23.302;2022-10-16T07:51:11;96495.09;;;13.38;54.55
70072;BME280;57434;42.794;23.302;2022-10-16T07:53:38;96516.94;;;13.57;54.58
70072;BME280;57434;42.794;23.302;2022-10-16T07:56:06;96577.00;;;13.64;56.33
70072;BME280;57434;42.794;23.302;2022-10-16T07:58:34;96598.50;;;14.16;55.56
70072;BME280;57434;42.794;23.302;2022-10-16T08:01:04;96490.00;;;13.56;53.86
70072;BME280;57434;42.794;23.302;2022-10-16T08:03:31;96354.75;;;12.16;55.37
70072;BME280;57434;42.794;23.302;2022-10-16T08:05:59;96373.63;;;12.45;55.67
70072;BME280;57434;42.794;23.302;2022-10-16T08:08:27;96535.22;;;14.23;54.15
70072;BME280;57434;42.794;23.302;2022-10-16T08:10:54;96490.91;;;14.55;52.28
70072;BME280;57434;42.794;23.302;2022-10-16T08:13:21;96432.50;;;14.15;51.80
70072;BME280;57434;42.794;23.302;2022-10-16T08:15:48;96474.78;;;15.24;50.85
70072;BME280;57434;42.794;23.302;2022-10-16T08:18:16;96541.16;;;16.14;50.04
70072;BME280;57434;42.794;23.302;2022-10-16T08:20:43;96486.38;;;15.69;49.90
70072;BME280;57434;42.794;23.302;2022-10-16T08:23:13;96575.34;;;16.70;48.50
70072;BME280;57434;42.794;23.302;2022-10-16T08:25:40;96445.63;;;15.49;48.61
70072;BME280;57434;42.794;23.302;2022-10-16T08:28:10;96566.41;;;16.29;48.96
70072;BME280;57434;42.794;23.302;2022-10-16T08:30:38;96464.59;;;15.86;48.13
70072;BME280;57434;42.794;23.302;2022-10-16T08:33:05;96465.75;;;15.20;49.55
70072;BME280;57434;42.794;23.302;2022-10-16T08:35:35;96581.53;;;15.66;50.55
70072;BME280;57434;42.794;23.302;2022-10-16T08:38:04;96577.19;;;16.19;49.52
70072;BME280;57434;42.794;23.302;2022-10-16T08:40:32;96505.03;;;15.98;48.95
70072;BME280;57434;42.794;23.302;2022-10-16T08:43:16;96560.72;;;16.93;46.94
70072;BME280;57434;42.794;23.302;2022-10-16T08:48:36;96555.28;;;16.84;45.55
70072;BME280;57434;42.794;23.302;2022-10-16T08:51:09;96567.13;;;16.77;45.42
70072;BME280;57434;42.794;23.302;2022-10-16T08:53:54;96574.88;;;17.88;44.45
70072;BME280;57434;42.794;23.302;2022-10-16T08:56:23;96424.66;;;17.05;43.82
70072;BME280;57434;42.794;23.302;2022-10-16T08:58:51;96439.50;;;17.44;42.52
70072;BME280;57434;42.794;23.302;2022-10-16T09:01:38;96567.00;;;18.39;41.85
70072;BME280;57434;42.794;23.302;2022-10-16T09:07:02;96566.47;;;18.93;41.63
70072;BME280;57434;42.794;23.302;2022-10-16T09:12:21;96571.19;;;18.79;40.96
70072;BME280;57434;42.794;23.302;2022-10-16T09:15:48;96490.47;;;18.52;40.89
70072;BME280;57434;42.794;23.302;2022-10-16T09:18:45;96471.84;;;18.57;40.88
70072;BME280;57434;42.794;23.302;2022-10-16T09:21:21;96585.84;;;19.30;39.76
70072;BME280;57434;42.794;23.302;2022-10-16T09:23:51;96556.47;;;19.52;38.63
70072;BME280;57434;42.794;23.302;2022-10-16T09:26:18;96531.22;;;18.03;40.60
70072;BME280;57434;42.794;23.302;2022-10-16T09:28:46;96576.44;;;19.46;39.20
70072;BME280;57434;42.794;23.302;2022-10-16T09:31:16;96563.69;;;19.53;38.32
70072;BME280;57434;42.794;23.302;2022-10-16T09:33:47;96571.13;;;18.90;40.18
70072;BME280;57434;42.794;23.302;2022-10-16T09:36:16;96546.25;;;19.32;39.87
70072;BME280;57434;42.794;23.302;2022-10-16T09:38:43;96466.25;;;18.81;39.86
70072;BME280;57434;42.794;23.302;2022-10-16T09:41:19;96556.97;;;19.80;37.69
70072;BME280;57434;42.794;23.302;2022-10-16T09:43:58;96554.41;;;20.50;37.18
70072;BME280;57434;42.794;23.302;2022-10-16T09:46:31;96555.72;;;20.68;37.38
70072;BME280;57434;42.794;23.302;2022-10-16T09:49:21;96545.22;;;20.94;37.16
70072;BME280;57434;42.794;23.302;2022-10-16T09:51:49;96537.84;;;20.67;35.47
70072;BME280;57434;42.794;23.302;2022-10-16T09:54:19;96545.47;;;20.96;35.48
70072;BME280;57434;42.794;23.302;2022-10-16T09:56:46;96536.13;;;20.96;35.98
70072;BME280;57434;42.794;23.302;2022-10-16T09:59:16;96433.22;;;20.43;34.85
70072;BME280;57434;42.794;23.302;2022-10-16T10:01:50;96538.22;;;19.66;36.63
70072;BME280;57434;42.794;23.302;2022-10-16T10:04:19;96414.31;;;19.35;35.21
70072;BME280;57434;42.794;23.302;2022-10-16T10:06:49;96536.59;;;19.76;36.41
70072;BME280;57434;42.794;23.302;2022-10-16T10:09:22;96412.22;;;19.84;35.27
70072;BME280;57434;42.794;23.302;2022-10-16T10:11:59;96522.09;;;21.17;33.38
70072;BME280;57434;42.794;23.302;2022-10-16T10:14:47;96520.44;;;21.53;32.83
70072;BME280;57434;42.794;23.302;2022-10-16T10:17:26;96517.69;;;21.93;32.83
70072;BME280;57434;42.794;23.302;2022-10-16T10:28:00;96372.28;;;21.23;33.19
70072;BME280;57434;42.794;23.302;2022-10-16T10:30:36;96509.53;;;22.63;32.32
70072;BME280;57434;42.794;23.302;2022-10-16T10:35:45;96505.47;;;22.06;31.89
70072;BME280;57434;42.794;23.302;2022-10-16T10:38:30;96498.88;;;22.37;31.35
70072;BME280;57434;42.794;23.302;2022-10-16T10:41:20;96490.31;;;22.24;31.18
70072;BME280;57434;42.794;23.302;2022-10-16T10:46:51;96381.75;;;21.58;31.72
70072;BME280;57434;42.794;23.302;2022-10-16T10:58:29;96475.34;;;21.65;31.98
70072;BME280;57434;42.794;23.302;2022-10-16T11:06:11;96471.47;;;22.42;30.02
70072;BME280;57434;42.794;23.302;2022-10-16T11:11:36;96419.00;;;21.79;30.86
70072;BME280;57434;42.794;23.302;2022-10-16T11:16:45;96455.56;;;23.63;29.63
70072;BME280;57434;42.794;23.302;2022-10-16T11:22:07;96454.13;;;23.49;28.92
70072;BME280;57434;42.794;23.302;2022-10-16T11:28:44;96452.13;;;24.22;28.63
70072;BME280;57434;42.794;23.302;2022-10-16T11:31:07;96449.25;;;24.22;28.34
70072;BME280;57434;42.794;23.302;2022-10-16T11:34:17;96457.09;;;23.93;29.28
70072;BME280;57434;42.794;23.302;2022-10-16T11:36:51;96456.38;;;24.28;27.94
70072;BME280;57434;42.794;23.302;2022-10-16T11:39:25;96461.41;;;23.50;28.85
70072;BME280;57434;42.794;23.302;2022-10-16T11:42:01;96449.03;;;23.84;29.25
70072;BME280;57434;42.794;23.302;2022-10-16T11:47:45;96450.69;;;24.00;27.14
70072;BME280;57434;42.794;23.302;2022-10-16T11:50:33;96456.38;;;23.72;28.22
70072;BME280;57434;42.794;23.302;2022-10-16T11:56:07;96460.44;;;23.76;27.53
70072;BME280;57434;42.794;23.302;2022-10-16T11:58:43;96455.13;;;23.31;28.13
70072;BME280;57434;42.794;23.302;2022-10-16T12:01:19;96444.22;;;24.07;27.07
70072;BME280;57434;42.794;23.302;2022-10-16T12:04:14;96448.84;;;23.89;27.84
70072;BME280;57434;42.794;23.302;2022-10-16T12:07:04;96432.69;;;23.71;27.80
70072;BME280;57434;42.794;23.302;2022-10-16T12:09:36;96441.84;;;23.70;27.20
70072;BME280;57434;42.794;23.302;2022-10-16T12:12:04;96320.06;;;22.70;27.29
70072;BME280;57434;42.794;23.302;2022-10-16T12:14:38;96449.28;;;23.65;28.44
70072;BME280;57434;42.794;23.302;2022-10-16T12:17:37;96436.34;;;24.00;28.11
70072;BME280;57434;42.794;23.302;2022-10-16T12:25:26;96444.91;;;24.28;26.32
70072;BME280;57434;42.794;23.302;2022-10-16T12:30:36;96437.56;;;24.12;25.53
70072;BME280;57434;42.794;23.302;2022-10-16T12:33:06;96391.94;;;24.29;24.40
70072;BME280;57434;42.794;23.302;2022-10-16T12:35:44;96452.19;;;24.29;22.91
70072;BME280;57434;42.794;23.302;2022-10-16T12:38:20;96445.59;;;23.85;22.48
70072;BME280;57434;42.794;23.302;2022-10-16T12:41:03;96338.66;;;23.05;24.03
70072;BME280;57434;42.794;23.302;2022-10-16T12:43:47;96426.56;;;23.95;24.53
70072;BME280;57434;42.794;23.302;2022-10-16T12:48:43;96427.19;;;24.02;23.71
70072;BME280;57434;42.794;23.302;2022-10-16T12:54:40;96439.72;;;24.27;23.61
70072;BME280;57434;42.794;23.302;2022-10-16T13:10:41;96452.38;;;23.95;24.81
70072;BME280;57434;42.794;23.302;2022-10-16T13:16:19;96452.78;;;23.50;25.38
70072;BME280;57434;42.794;23.302;2022-10-16T13:21:50;96458.44;;;23.22;24.75
70072;BME280;57434;42.794;23.302;2022-10-16T13:27:19;96457.06;;;22.81;26.46
70072;BME280;57434;42.794;23.302;2022-10-16T13:29:59;96371.50;;;22.15;25.98
70072;BME280;57434;42.794;23.302;2022-10-16T13:32:28;96460.50;;;22.80;25.87
70072;BME280;57434;42.794;23.302;2022-10-16T13:34:55;96351.75;;;21.25;26.51
70072;BME280;57434;42.794;23.302;2022-10-16T13:37:26;96391.75;;;21.65;27.13
70072;BME280;57434;42.794;23.302;2022-10-16T13:42:46;96335.19;;;21.63;25.63
70072;BME280;57434;42.794;23.302;2022-10-16T13:45:21;96338.16;;;21.44;26.35
70072;BME280;57434;42.794;23.302;2022-10-16T13:47:48;96346.59;;;21.23;26.97
70072;BME280;57434;42.794;23.302;2022-10-16T13:50:17;96469.72;;;22.39;27.14
70072;BME280;57434;42.794;23.302;2022-10-16T13:52:45;96487.28;;;22.69;25.34
70072;BME280;57434;42.794;23.302;2022-10-16T13:55:16;96484.72;;;22.79;25.25
70072;BME280;57434;42.794;23.302;2022-10-16T13:57:44;96341.44;;;21.88;25.13
70072;BME280;57434;42.794;23.302;2022-10-16T14:00:37;96422.06;;;22.20;25.69
70072;BME280;57434;42.794;23.302;2022-10-16T14:03:11;96480.81;;;22.55;25.59
70072;BME280;57434;42.794;23.302;2022-10-16T14:05:53;96457.19;;;22.42;25.84
70072;BME280;57434;42.794;23.302;2022-10-16T14:08:23;96342.31;;;21.56;26.21
70072;BME280;57434;42.794;23.302;2022-10-16T14:10:53;96278.28;;;20.99;27.30
70072;BME280;57434;42.794;23.302;2022-10-16T14:13:50;96470.97;;;22.17;27.47
70072;BME280;57434;42.794;23.302;2022-10-16T14:16:28;96323.03;;;20.91;27.61
70072;BME280;57434;42.794;23.302;2022-10-16T14:18:59;96468.69;;;21.89;28.40
70072;BME280;57434;42.794;23.302;2022-10-16T14:21:27;96489.56;;;21.97;28.27
70072;BME280;57434;42.794;23.302;2022-10-16T14:23:54;96323.34;;;20.74;27.45
70072;BME280;57434;42.794;23.302;2022-10-16T14:26:28;96359.88;;;20.76;27.80
70072;BME280;57434;42.794;23.302;2022-10-16T14:29:12;96470.78;;;21.43;28.13
70072;BME280;57434;42.794;23.302;2022-10-16T14:31:39;96339.19;;;20.24;28.42
70072;BME280;57434;42.794;23.302;2022-10-16T14:36:55;96308.69;;;19.82;28.56
70072;BME280;57434;42.794;23.302;2022-10-16T14:39:23;96424.28;;;20.52;28.61
70072;BME280;57434;42.794;23.302;2022-10-16T14:41:54;96354.25;;;19.82;29.51
70072;BME280;57434;42.794;23.302;2022-10-16T14:44:28;96463.94;;;20.69;30.01
70072;BME280;57434;42.794;23.302;2022-10-16T14:46:56;96391.63;;;19.97;30.08
70072;BME280;57434;42.794;23.302;2022-10-16T14:49:23;96505.78;;;20.61;30.70
70072;BME280;57434;42.794;23.302;2022-10-16T14:51:50;96492.47;;;20.50;30.63
70072;BME280;57434;42.794;23.302;2022-10-16T14:54:19;96502.16;;;20.42;31.27
70072;BME280;57434;42.794;23.302;2022-10-16T14:56:57;96504.19;;;20.04;30.93
70072;BME280;57434;42.794;23.302;2022-10-16T14:59:28;96507.34;;;19.76;31.44
70072;BME280;57434;42.794;23.302;2022-10-16T15:01:57;96528.06;;;19.46;32.20
70072;BME280;57434;42.794;23.302;2022-10-16T15:04:25;96503.38;;;18.94;32.48
70072;BME280;57434;42.794;23.302;2022-10-16T15:06:53;96530.66;;;18.73;33.19
70072;BME280;57434;42.794;23.302;2022-10-16T15:09:20;96472.22;;;18.31;33.47